Time;durP1;ratioP1;P1;durP2;ratioP2;P2;SDS_P1;SDS_P2;PMS_P1;PMS_P2;Temp;Humidity;BMP_temperature;BMP_pressure;BME280_temperature;BME280_humidity;BME280_pressure;Samples;Min_cycle;Max_cycle;Signal;HPM_P1;HPM_P2
2023/12/23 00:04:24;;;;;;;4.43;3.28;;;21.80;44.50;;;;;;10460118;28;20143;-44
2023/12/23 00:09:27;;;;;;;3.55;3.13;;;21.90;44.40;;;;;;10476296;28;20112;-42
2023/12/23 00:14:29;;;;;;;3.53;3.22;;;21.80;44.50;;;;;;10474179;28;20052;-42
2023/12/23 00:19:31;;;;;;;3.72;3.05;;;21.90;44.40;;;;;;10474229;28;20058;-41
2023/12/23 00:24:33;;;;;;;4.60;2.97;;;21.90;44.30;;;;;;10483653;28;20527;-42
2023/12/23 00:29:35;;;;;;;4.18;3.05;;;22.00;44.00;;;;;;10466761;28;20139;-45
2023/12/23 00:34:38;;;;;;;3.22;2.70;;;22.10;43.70;;;;;;10468617;28;20167;-44
2023/12/23 00:39:40;;;;;;;3.65;2.80;;;22.20;43.60;;;;;;10464887;28;20147;-46
2023/12/23 00:44:42;;;;;;;4.40;2.97;;;22.20;43.50;;;;;;10478577;28;20072;-42
2023/12/23 00:49:45;;;;;;;3.22;2.78;;;22.20;43.40;;;;;;10480601;28;20471;-42
2023/12/23 00:54:46;;;;;;;3.40;2.63;;;22.40;43.10;;;;;;10473265;28;20052;-42
2023/12/23 00:59:48;;;;;;;3.40;2.35;;;22.40;43.40;;;;;;10475463;28;20132;-42
2023/12/23 01:04:51;;;;;;;3.08;2.35;;;22.40;43.10;;;;;;10473092;28;20471;-42
2023/12/23 01:09:52;;;;;;;3.22;2.60;;;22.50;43.00;;;;;;10469485;28;20127;-42
2023/12/23 01:14:54;;;;;;;3.05;2.40;;;22.40;43.80;;;;;;10475298;28;20132;-42
2023/12/23 01:19:57;;;;;;;2.67;2.30;;;22.60;42.70;;;;;;10468896;28;20140;-43
2023/12/23 01:24:59;;;;;;;2.90;2.13;;;22.40;42.90;;;;;;10474615;28;20474;-42
2023/12/23 01:30:00;;;;;;;2.53;2.30;;;22.40;43.00;;;;;;10475715;28;20139;-46
2023/12/23 01:35:04;;;;;;;2.47;2.20;;;22.50;42.70;;;;;;10478859;28;20064;-42
2023/12/23 01:40:07;;;;;;;3.15;2.20;;;22.40;42.80;;;;;;10473724;28;20131;-43
2023/12/23 01:45:09;;;;;;;2.58;2.00;;;22.30;43.00;;;;;;10473774;28;20048;-42
2023/12/23 01:50:12;;;;;;;2.30;2.10;;;22.30;42.90;;;;;;10470136;28;20051;-42
2023/12/23 01:55:14;;;;;;;2.97;2.10;;;22.40;42.80;;;;;;10470647;28;20052;-42
2023/12/23 02:00:16;;;;;;;3.22;2.20;;;22.20;42.90;;;;;;10473835;28;20127;-45
2023/12/23 02:05:19;;;;;;;2.75;2.10;;;22.30;42.90;;;;;;10473634;28;20156;-41
2023/12/23 02:10:20;;;;;;;3.78;2.17;;;22.40;42.80;;;;;;10470815;28;20128;-43
2023/12/23 02:15:23;;;;;;;3.22;2.17;;;22.40;42.80;;;;;;10474271;28;20080;-45
2023/12/23 02:20:26;;;;;;;2.83;2.20;;;22.40;42.80;;;;;;10479368;28;20047;-43
2023/12/23 02:25:29;;;;;;;2.80;2.30;;;22.50;42.40;;;;;;10471448;28;20063;-42
2023/12/23 02:30:31;;;;;;;2.55;1.90;;;22.40;42.60;;;;;;10468080;28;20098;-46
2023/12/23 02:35:33;;;;;;;2.97;2.20;;;22.40;42.40;;;;;;10467971;28;20124;-42
2023/12/23 02:40:36;;;;;;;2.15;1.75;;;22.40;42.60;;;;;;10472097;28;20594;-42
2023/12/23 02:45:37;;;;;;;2.85;2.03;;;22.30;42.60;;;;;;10474298;28;20049;-42
2023/12/23 02:50:39;;;;;;;2.13;1.70;;;22.30;42.60;;;;;;10468040;28;20123;-43
2023/12/23 02:55:42;;;;;;;2.45;2.00;;;22.30;42.60;;;;;;10468988;28;20135;-42
2023/12/23 03:00:43;;;;;;;2.35;1.67;;;22.20;42.70;;;;;;10470317;28;20479;-42
2023/12/23 03:05:45;;;;;;;2.70;1.85;;;22.30;42.50;;;;;;10473920;28;20155;-43
2023/12/23 03:10:48;;;;;;;3.13;1.77;;;22.30;42.50;;;;;;10470325;28;20123;-43
2023/12/23 03:15:49;;;;;;;2.53;1.67;;;22.20;42.80;;;;;;10468249;28;20141;-42
2023/12/23 03:20:51;;;;;;;2.08;1.75;;;22.10;42.80;;;;;;10468242;28;20569;-42
2023/12/23 03:25:54;;;;;;;2.08;1.67;;;22.10;42.80;;;;;;10468485;28;20131;-42
2023/12/23 03:30:56;;;;;;;2.90;1.70;;;22.20;42.70;;;;;;10480314;28;20045;-42
2023/12/23 03:35:58;;;;;;;2.58;1.52;;;22.10;42.60;;;;;;10475159;28;20174;-41
2023/12/23 03:41:01;;;;;;;2.70;1.60;;;22.10;42.70;;;;;;10469191;28;20130;-46
2023/12/23 03:46:03;;;;;;;2.50;1.50;;;22.10;42.70;;;;;;10465467;28;20136;-42
2023/12/23 03:51:05;;;;;;;3.05;1.80;;;22.00;42.80;;;;;;10472167;28;20127;-44
2023/12/23 03:56:08;;;;;;;2.30;1.55;;;22.20;42.50;;;;;;10478309;28;20187;-44
2023/12/23 04:01:10;;;;;;;2.08;1.20;;;22.10;42.60;;;;;;10474384;28;20049;-42
2023/12/23 04:06:12;;;;;;;2.45;1.50;;;22.20;42.40;;;;;;10468423;28;20534;-42
2023/12/23 04:11:15;;;;;;;2.22;1.38;;;22.30;42.90;;;;;;10471524;28;20048;-42
2023/12/23 04:16:17;;;;;;;2.10;1.58;;;22.60;42.70;;;;;;10469358;28;20140;-42
2023/12/23 04:21:18;;;;;;;2.38;1.30;;;22.90;42.30;;;;;;10468247;28;20119;-44
2023/12/23 04:26:21;;;;;;;1.90;1.35;;;23.10;42.00;;;;;;10469319;28;20442;-42
2023/12/23 04:31:23;;;;;;;1.55;1.33;;;23.30;41.70;;;;;;10466450;28;20127;-42
2023/12/23 04:36:24;;;;;;;2.08;1.30;;;23.30;41.60;;;;;;10467013;28;20163;-46
2023/12/23 04:41:27;;;;;;;1.40;1.15;;;23.50;41.20;;;;;;10478778;28;20487;-42
2023/12/23 04:46:29;;;;;;;2.15;1.38;;;23.60;41.00;;;;;;10472055;28;20163;-42
2023/12/23 04:51:31;;;;;;;2.20;1.20;;;23.70;41.00;;;;;;10474634;28;20056;-43
2023/12/23 04:56:33;;;;;;;1.50;1.15;;;23.70;40.90;;;;;;10477600;28;20123;-45
2023/12/23 05:01:35;;;;;;;1.73;1.20;;;23.80;40.80;;;;;;10478216;28;20132;-42
2023/12/23 05:06:37;;;;;;;1.38;1.20;;;23.80;40.60;;;;;;10468623;28;20131;-42
2023/12/23 05:11:40;;;;;;;1.27;1.00;;;23.90;40.40;;;;;;10472899;28;20529;-45
2023/12/23 05:16:41;;;;;;;1.35;1.05;;;23.80;40.50;;;;;;10472039;28;20171;-42
2023/12/23 05:21:44;;;;;;;1.30;1.00;;;23.60;40.70;;;;;;10477064;28;20137;-42
2023/12/23 05:26:46;;;;;;;1.60;1.40;;;23.80;40.80;;;;;;10482569;28;20040;-42
2023/12/23 05:31:48;;;;;;;1.42;1.00;;;23.90;40.60;;;;;;10480735;28;20154;-43
2023/12/23 05:36:50;;;;;;;1.20;0.95;;;24.00;40.50;;;;;;10477081;28;20546;-42
2023/12/23 05:41:52;;;;;;;1.17;0.90;;;24.10;40.40;;;;;;10471969;28;20399;-42
2023/12/23 05:46:54;;;;;;;1.70;1.10;;;24.10;40.50;;;;;;10476098;28;20128;-42
2023/12/23 05:51:56;;;;;;;1.35;1.00;;;24.00;40.60;;;;;;10484212;28;20147;-42
2023/12/23 05:56:59;;;;;;;2.15;1.05;;;24.10;40.50;;;;;;10472142;28;20537;-44
2023/12/23 06:02:01;;;;;;;1.33;1.00;;;24.30;40.50;;;;;;10472322;28;20052;-43
2023/12/23 06:07:03;;;;;;;1.30;0.90;;;24.30;40.60;;;;;;10474931;28;20051;-44
2023/12/23 06:12:06;;;;;;;1.08;0.70;;;23.70;41.20;;;;;;10474242;28;20127;-42
2023/12/23 06:17:08;;;;;;;0.93;0.82;;;23.60;41.60;;;;;;10472351;28;20122;-42
2023/12/23 06:22:10;;;;;;;0.95;0.82;;;23.50;41.80;;;;;;10468891;28;20079;-44
2023/12/23 06:27:13;;;;;;;1.20;0.90;;;23.30;42.00;;;;;;10473127;28;20595;-46
2023/12/23 06:32:14;;;;;;;1.08;0.98;;;23.30;42.10;;;;;;10469529;28;20135;-42
2023/12/23 06:37:16;;;;;;;1.05;0.80;;;23.30;42.10;;;;;;10473680;28;20120;-45
2023/12/23 06:42:19;;;;;;;0.90;0.68;;;23.30;42.30;;;;;;10468932;28;20558;-43
2023/12/23 06:47:21;;;;;;;1.48;0.90;;;23.30;42.30;;;;;;10466547;28;20159;-42
2023/12/23 06:52:22;;;;;;;1.10;0.68;;;23.30;42.40;;;;;;10464306;28;20148;-47
2023/12/23 06:57:25;;;;;;;0.90;0.80;;;23.30;42.50;;;;;;10468877;28;20139;-43
2023/12/23 07:02:27;;;;;;;0.80;0.80;;;23.30;42.60;;;;;;10474939;28;20496;-44
2023/12/23 07:07:28;;;;;;;0.93;0.80;;;23.30;42.50;;;;;;10471737;28;20160;-42
2023/12/23 07:12:32;;;;;;;1.40;0.80;;;23.30;42.40;;;;;;10467175;28;20178;-42
2023/12/23 07:17:33;;;;;;;0.95;0.70;;;23.30;42.40;;;;;;10469534;28;20080;-42
2023/12/23 07:22:35;;;;;;;1.30;0.73;;;23.30;42.50;;;;;;10478466;28;20044;-43
2023/12/23 07:27:38;;;;;;;0.70;0.70;;;23.40;42.50;;;;;;10465603;28;20052;-44
2023/12/23 07:32:39;;;;;;;1.15;0.80;;;23.40;42.40;;;;;;10468200;28;20127;-42
2023/12/23 07:37:41;;;;;;;1.80;0.80;;;23.40;42.50;;;;;;10466406;28;20633;-44
2023/12/23 07:42:44;;;;;;;0.70;0.70;;;23.30;42.60;;;;;;10479615;28;20438;-45
2023/12/23 07:47:46;;;;;;;1.05;0.75;;;23.30;42.60;;;;;;10471328;28;20139;-42
2023/12/23 07:52:48;;;;;;;0.98;0.70;;;23.40;42.50;;;;;;10466999;28;20068;-42
2023/12/23 07:57:51;;;;;;;1.13;0.60;;;23.30;42.60;;;;;;10468443;28;20141;-44
2023/12/23 08:02:53;;;;;;;0.70;0.70;;;23.40;42.60;;;;;;10464231;28;20044;-42
2023/12/23 08:07:54;;;;;;;1.65;0.60;;;23.40;42.60;;;;;;10465247;28;20136;-47
2023/12/23 08:12:57;;;;;;;2.00;0.70;;;23.40;43.20;;;;;;10466206;28;20535;-44
2023/12/23 08:18:00;;;;;;;0.98;0.80;;;23.70;43.20;;;;;;10464776;28;20051;-42
2023/12/23 08:23:01;;;;;;;0.80;0.70;;;23.60;44.30;;;;;;10466910;28;20135;-42
2023/12/23 08:28:05;;;;;;;2.45;0.88;;;23.60;44.90;;;;;;10469628;28;20055;-43
2023/12/23 08:33:06;;;;;;;2.60;0.90;;;23.70;44.90;;;;;;10472570;28;20049;-45
2023/12/23 08:38:08;;;;;;;6.82;1.50;;;23.60;44.90;;;;;;10472854;28;20593;-43
2023/12/23 08:43:12;;;;;;;5.13;2.40;;;23.60;44.30;;;;;;10470943;28;20061;-45
2023/12/23 08:48:13;;;;;;;11.40;4.50;;;23.70;44.20;;;;;;10476014;28;20052;-48
2023/12/23 08:53:16;;;;;;;11.55;5.90;;;23.80;45.50;;;;;;10470485;28;20223;-44
2023/12/23 08:58:19;;;;;;;10.30;5.63;;;23.80;46.00;;;;;;10485030;28;20049;-45
2023/12/23 09:03:20;;;;;;;9.88;5.40;;;23.80;46.00;;;;;;10473337;28;20045;-46
2023/12/23 09:08:22;;;;;;;11.75;5.45;;;23.80;46.50;;;;;;10470476;28;20048;-43
2023/12/23 09:13:25;;;;;;;12.85;5.80;;;23.80;47.10;;;;;;10471802;28;20049;-45
2023/12/23 09:18:27;;;;;;;10.63;5.00;;;23.60;47.90;;;;;;10476288;28;20144;-46
2023/12/23 09:23:28;;;;;;;13.35;5.15;;;23.70;48.10;;;;;;10478998;28;20132;-45
2023/12/23 09:28:31;;;;;;;7.82;5.05;;;23.60;47.60;;;;;;10469802;28;20148;-43
2023/12/23 09:33:33;;;;;;;21.02;6.00;;;23.70;47.80;;;;;;10465749;28;20187;-43
2023/12/23 09:38:35;;;;;;;12.55;5.32;;;23.70;45.90;;;;;;10470997;28;20056;-43
2023/12/23 09:43:37;;;;;;;14.85;5.55;;;23.70;46.10;;;;;;10471655;28;20613;-46
2023/12/23 09:48:39;;;;;;;13.05;4.95;;;23.80;46.40;;;;;;10472299;28;20144;-45
2023/12/23 09:53:41;;;;;;;16.65;5.30;;;23.70;47.10;;;;;;10474429;28;20554;-45
2023/12/23 09:58:44;;;;;;;15.45;9.65;;;23.80;47.90;;;;;;10475147;28;20513;-43
2023/12/23 10:03:47;;;;;;;34.63;29.92;;;23.70;48.20;;;;;;10479466;28;20114;-46
2023/12/23 10:08:49;;;;;;;41.10;36.67;;;23.80;48.40;;;;;;10464251;28;20049;-47
2023/12/23 10:13:52;;;;;;;33.47;26.83;;;23.80;48.40;;;;;;10465762;28;20041;-44
2023/12/23 10:18:54;;;;;;;26.52;20.02;;;23.60;48.60;;;;;;10465678;28;20131;-48
2023/12/23 10:23:55;;;;;;;23.85;14.18;;;23.60;48.70;;;;;;10470676;28;20045;-43
2023/12/23 10:29:01;;;;;;;17.08;12.05;;;23.70;48.60;;;;;;10481327;28;20645;-45
2023/12/23 10:34:06;;;;;;;17.13;10.40;;;23.70;48.40;;;;;;10474309;28;20052;-45
2023/12/23 10:39:10;;;;;;;12.43;8.75;;;23.80;48.40;;;;;;10471462;28;20140;-43
2023/12/23 10:44:16;;;;;;;12.43;8.02;;;23.80;48.30;;;;;;10470766;28;20051;-44
2023/12/23 10:49:17;;;;;;;11.90;7.60;;;23.90;48.20;;;;;;10465673;28;20493;-45
2023/12/23 10:54:19;;;;;;;12.40;7.85;;;23.90;48.00;;;;;;10482294;28;20132;-47
2023/12/23 10:59:22;;;;;;;9.70;7.05;;;24.00;47.90;;;;;;10472273;28;20144;-43
2023/12/23 11:04:24;;;;;;;12.90;7.07;;;24.00;47.80;;;;;;10471825;28;20094;-47
2023/12/23 11:09:25;;;;;;;12.13;7.20;;;24.00;47.80;;;;;;10471303;28;20143;-46
2023/12/23 11:14:29;;;;;;;10.05;6.45;;;24.00;47.70;;;;;;10472922;28;20091;-44
2023/12/23 11:19:31;;;;;;;9.52;5.72;;;24.10;47.60;;;;;;10473517;28;20144;-44
2023/12/23 11:24:33;;;;;;;11.07;5.93;;;24.10;47.60;;;;;;10465867;28;20147;-44
2023/12/23 11:29:36;;;;;;;10.00;5.95;;;24.10;47.40;;;;;;10462448;28;20044;-44
2023/12/23 11:34:40;;;;;;;7.80;5.53;;;24.20;47.40;;;;;;10466206;28;20552;-45
2023/12/23 11:39:42;;;;;;;7.53;5.60;;;24.20;47.40;;;;;;10475787;28;20130;-44
2023/12/23 11:44:45;;;;;;;9.68;5.50;;;24.20;47.30;;;;;;10477014;28;20055;-45
2023/12/23 11:49:46;;;;;;;6.85;4.97;;;24.20;47.30;;;;;;10470531;28;20139;-48
2023/12/23 11:54:48;;;;;;;6.55;4.40;;;24.30;47.30;;;;;;10467635;28;20124;-45
2023/12/23 11:59:52;;;;;;;7.50;4.80;;;24.30;47.20;;;;;;10474367;28;20131;-45
2023/12/23 12:04:54;;;;;;;6.47;4.70;;;24.30;47.20;;;;;;10470859;28;20052;-46
2023/12/23 12:09:55;;;;;;;6.15;4.80;;;24.30;47.10;;;;;;10472590;28;20128;-49
2023/12/23 12:14:58;;;;;;;7.50;4.07;;;24.40;47.00;;;;;;10465815;28;20542;-45
2023/12/23 12:20:01;;;;;;;7.20;4.18;;;24.40;47.00;;;;;;10471450;28;20079;-45
2023/12/23 12:25:02;;;;;;;5.93;3.92;;;24.40;47.10;;;;;;10475994;28;20514;-44
2023/12/23 12:30:09;;;;;;;5.72;3.80;;;24.40;47.10;;;;;;10471763;28;20044;-44
2023/12/23 12:35:11;;;;;;;5.47;3.85;;;24.40;47.00;;;;;;10463668;28;20056;-47
2023/12/23 12:40:14;;;;;;;6.32;3.88;;;24.50;47.00;;;;;;10462000;28;20052;-45
2023/12/23 12:45:17;;;;;;;8.18;4.20;;;24.60;46.50;;;;;;10456260;28;20558;-48
2023/12/23 12:50:19;;;;;;;7.90;4.35;;;24.50;46.40;;;;;;10469313;28;20076;-44
2023/12/23 12:55:23;;;;;;;7.78;3.88;;;24.70;46.10;;;;;;10459633;28;20547;-46
2023/12/23 13:00:26;;;;;;;10.40;4.43;;;24.70;46.20;;;;;;10463956;28;20140;-44
2023/12/23 13:05:28;;;;;;;9.43;4.10;;;24.70;46.90;;;;;;10464319;28;20131;-44
2023/12/23 13:10:30;;;;;;;16.65;3.80;;;24.70;47.00;;;;;;10467282;28;20124;-46
2023/12/23 13:15:33;;;;;;;9.70;3.42;;;24.70;47.10;;;;;;10481959;28;20045;-44
2023/12/23 13:20:35;;;;;;;10.32;4.07;;;24.60;46.70;;;;;;10470078;28;20144;-46
2023/12/23 13:25:36;;;;;;;15.00;4.95;;;24.70;46.60;;;;;;10467786;28;20140;-46
2023/12/23 13:30:39;;;;;;;9.68;4.57;;;24.60;47.10;;;;;;10466583;28;20156;-47
2023/12/23 13:35:42;;;;;;;8.13;4.38;;;24.50;47.70;;;;;;10473039;28;20049;-44
2023/12/23 13:40:43;;;;;;;7.20;3.83;;;24.60;47.60;;;;;;10476192;28;20045;-46
2023/12/23 13:45:46;;;;;;;8.05;3.80;;;24.30;48.30;;;;;;10468565;28;20486;-43
2023/12/23 13:50:48;;;;;;;6.55;3.40;;;24.30;48.70;;;;;;10471080;28;20051;-47
2023/12/23 13:55:50;;;;;;;10.43;2.90;;;24.20;49.40;;;;;;10474170;28;20049;-45
2023/12/23 14:00:53;;;;;;;6.35;2.33;;;24.40;47.30;;;;;;10478487;28;20459;-44
2023/12/23 14:05:57;;;;;;;11.10;2.50;;;24.50;44.80;;;;;;10471134;28;20040;-44
2023/12/23 14:10:59;;;;;;;11.10;2.38;;;24.40;44.60;;;;;;10466515;28;20127;-43
2023/12/23 14:16:02;;;;;;;8.18;2.15;;;24.40;43.70;;;;;;10474398;28;20155;-44
2023/12/23 14:21:04;;;;;;;10.95;1.95;;;24.50;42.90;;;;;;10476797;28;20148;-44
2023/12/23 14:26:05;;;;;;;9.10;2.08;;;24.30;43.30;;;;;;10471580;28;20040;-46
2023/12/23 14:31:08;;;;;;;7.10;1.60;;;24.30;42.80;;;;;;10475683;28;20056;-48
2023/12/23 14:36:10;;;;;;;5.43;1.55;;;24.30;42.40;;;;;;10474103;28;20045;-44
2023/12/23 14:41:11;;;;;;;4.65;1.35;;;24.30;42.40;;;;;;10473822;28;20482;-46
2023/12/23 14:46:16;;;;;;;3.67;1.33;;;24.30;42.20;;;;;;10470452;28;20095;-47
2023/12/23 14:51:20;;;;;;;2.22;1.25;;;24.20;41.80;;;;;;10469249;28;20385;-46
2023/12/23 14:56:21;;;;;;;10.00;1.52;;;24.00;41.80;;;;;;10474322;28;20118;-45
2023/12/23 15:01:25;;;;;;;3.28;1.20;;;24.00;43.00;;;;;;10470944;28;20131;-43
2023/12/23 15:06:27;;;;;;;3.05;1.70;;;24.00;43.80;;;;;;10469509;28;20045;-44
2023/12/23 15:11:28;;;;;;;4.90;1.63;;;24.10;44.70;;;;;;10470728;28;20057;-46
2023/12/23 15:16:31;;;;;;;7.13;1.60;;;24.10;45.30;;;;;;10466531;28;20131;-43
2023/12/23 15:21:33;;;;;;;8.27;1.88;;;24.10;45.80;;;;;;10463393;28;20127;-46
2023/12/23 15:26:34;;;;;;;7.40;1.65;;;24.10;45.60;;;;;;10465705;28;20040;-46
2023/12/23 15:31:37;;;;;;;5.97;1.50;;;24.10;45.00;;;;;;10465417;28;20057;-45
2023/12/23 15:36:39;;;;;;;4.22;1.63;;;24.20;45.10;;;;;;10471645;28;20602;-43
2023/12/23 15:41:41;;;;;;;6.47;1.77;;;24.20;45.30;;;;;;10467942;28;20131;-43
2023/12/23 15:46:44;;;;;;;4.43;1.83;;;24.20;45.70;;;;;;10475340;28;20123;-45
2023/12/23 15:51:45;;;;;;;3.92;1.63;;;24.10;45.10;;;;;;10476090;28;20152;-43
2023/12/23 15:56:47;;;;;;;4.63;1.88;;;24.20;45.10;;;;;;10468801;28;20131;-44
2023/12/23 16:01:50;;;;;;;3.60;1.88;;;24.10;45.10;;;;;;10469196;28;20052;-47
2023/12/23 16:06:52;;;;;;;5.65;1.90;;;24.10;45.40;;;;;;10468554;28;20136;-44
2023/12/23 16:11:54;;;;;;;2.78;1.38;;;24.10;45.30;;;;;;10470650;28;20044;-45
2023/12/23 16:16:57;;;;;;;6.15;1.73;;;24.10;45.30;;;;;;10472373;28;20132;-48
2023/12/23 16:21:58;;;;;;;4.28;1.77;;;24.10;45.60;;;;;;10471823;28;20045;-44
2023/12/23 16:27:00;;;;;;;4.85;1.30;;;24.20;45.50;;;;;;10462697;28;20097;-44
2023/12/23 16:32:03;;;;;;;4.55;1.58;;;24.20;45.60;;;;;;10459340;28;20076;-43
2023/12/23 16:37:05;;;;;;;5.57;1.75;;;24.30;45.40;;;;;;10459030;28;20048;-46
2023/12/23 16:42:07;;;;;;;3.35;1.23;;;24.30;45.40;;;;;;10467268;28;20118;-44
2023/12/23 16:47:10;;;;;;;3.90;1.30;;;24.30;45.30;;;;;;10465073;28;20516;-45
2023/12/23 16:52:12;;;;;;;4.28;1.55;;;24.40;44.90;;;;;;10472323;28;20636;-44
2023/12/23 16:57:14;;;;;;;3.83;1.60;;;24.40;44.80;;;;;;10471641;28;20131;-46
2023/12/23 17:02:16;;;;;;;3.22;1.10;;;24.40;45.00;;;;;;10470441;28;20155;-47
2023/12/23 17:07:18;;;;;;;3.72;1.67;;;24.40;44.10;;;;;;10469930;28;20048;-46
2023/12/23 17:12:20;;;;;;;7.30;1.50;;;24.50;44.10;;;;;;10474758;28;20131;-44
2023/12/23 17:17:23;;;;;;;1.90;1.38;;;24.50;44.20;;;;;;10470742;28;20128;-46
2023/12/23 17:22:24;;;;;;;2.25;1.30;;;24.50;44.00;;;;;;10473289;28;20142;-47
2023/12/23 17:27:26;;;;;;;2.92;1.45;;;24.40;44.00;;;;;;10476321;28;20132;-45
2023/12/23 17:32:29;;;;;;;4.78;1.30;;;24.40;44.10;;;;;;10475317;28;20482;-45
2023/12/23 17:37:30;;;;;;;5.40;1.48;;;24.30;44.60;;;;;;10467577;28;20132;-44
2023/12/23 17:42:32;;;;;;;6.00;1.38;;;24.30;44.80;;;;;;10470107;28;20091;-44
2023/12/23 17:47:35;;;;;;;6.63;1.67;;;24.30;44.80;;;;;;10466855;28;20047;-45
2023/12/23 17:52:38;;;;;;;4.15;1.50;;;24.30;45.50;;;;;;10477083;28;20049;-46
2023/12/23 17:57:39;;;;;;;5.55;1.63;;;24.20;46.00;;;;;;10471750;28;20040;-46
2023/12/23 18:02:42;;;;;;;4.72;1.52;;;24.30;46.40;;;;;;10472100;28;20135;-47
2023/12/23 18:07:44;;;;;;;3.53;1.50;;;24.20;47.10;;;;;;10471951;28;20037;-47
2023/12/23 18:12:46;;;;;;;6.85;1.98;;;24.20;47.50;;;;;;10468727;28;20083;-46
2023/12/23 18:17:49;;;;;;;6.57;1.65;;;24.30;48.50;;;;;;10477947;28;20135;-45
2023/12/23 18:22:51;;;;;;;7.50;1.70;;;24.30;47.30;;;;;;10471509;28;20542;-45
2023/12/23 18:27:53;;;;;;;8.60;1.50;;;24.40;45.70;;;;;;10465331;28;20048;-45
2023/12/23 18:32:57;;;;;;;4.53;1.70;;;24.20;46.10;;;;;;10463564;28;20486;-45
2023/12/23 18:37:59;;;;;;;11.63;1.70;;;24.40;45.30;;;;;;10467493;28;20045;-46
2023/12/23 18:43:06;;;;;;;3.75;1.70;;;24.40;44.40;;;;;;10469527;28;20139;-45
2023/12/23 18:48:10;;;;;;;14.93;1.85;;;24.50;43.70;;;;;;10458305;28;20384;-47
2023/12/23 18:53:11;;;;;;;4.47;1.60;;;24.60;43.20;;;;;;10465452;28;20049;-47
2023/12/23 18:58:14;;;;;;;8.52;2.20;;;24.60;42.50;;;;;;10461038;28;20055;-48
2023/12/23 19:03:18;;;;;;;5.60;1.80;;;24.70;41.90;;;;;;10466141;28;20092;-46
2023/12/23 19:08:19;;;;;;;6.65;1.90;;;24.80;41.40;;;;;;10460942;28;20490;-45
2023/12/23 19:13:21;;;;;;;12.98;2.03;;;24.70;40.90;;;;;;10460043;28;20458;-47
2023/12/23 19:18:24;;;;;;;3.00;1.52;;;24.40;41.60;;;;;;10462469;28;20084;-45
2023/12/23 19:23:26;;;;;;;11.43;1.70;;;24.60;41.70;;;;;;10468044;28;20044;-46
2023/12/23 19:28:27;;;;;;;3.83;1.55;;;25.00;42.30;;;;;;10468393;28;20492;-45
2023/12/23 19:33:30;;;;;;;5.30;1.30;;;25.00;42.40;;;;;;10477012;28;20049;-45
2023/12/23 19:38:32;;;;;;;3.80;1.30;;;25.10;42.90;;;;;;10466506;28;20144;-46
2023/12/23 19:43:34;;;;;;;4.68;1.40;;;25.20;42.80;;;;;;10469046;28;20126;-49
2023/12/23 19:48:37;;;;;;;3.95;1.20;;;25.10;43.20;;;;;;10474441;28;20076;-46
2023/12/23 19:53:39;;;;;;;3.72;1.23;;;25.00;43.60;;;;;;10461070;28;20059;-46
2023/12/23 19:58:41;;;;;;;4.50;1.10;;;25.00;43.70;;;;;;10466798;28;20058;-46
2023/12/23 20:03:45;;;;;;;1.95;1.05;;;25.10;43.50;;;;;;10466749;28;20070;-47
2023/12/23 20:08:46;;;;;;;5.28;1.60;;;25.40;42.90;;;;;;10466838;28;20071;-45
2023/12/23 20:13:48;;;;;;;2.15;1.20;;;25.10;43.20;;;;;;10475332;28;20072;-49
2023/12/23 20:18:51;;;;;;;5.72;1.05;;;25.30;42.80;;;;;;10461602;28;20318;-48
2023/12/23 20:23:52;;;;;;;5.13;1.30;;;25.40;42.50;;;;;;10471658;28;20486;-46
2023/12/23 20:28:54;;;;;;;3.78;1.10;;;25.20;42.70;;;;;;10473137;28;20049;-47
2023/12/23 20:33:58;;;;;;;3.35;1.52;;;24.90;43.10;;;;;;10477724;28;20417;-45
2023/12/23 20:39:00;;;;;;;3.97;1.50;;;24.40;44.30;;;;;;10480859;28;20052;-47
2023/12/23 20:44:02;;;;;;;8.57;1.63;;;24.00;45.00;;;;;;10473210;28;20075;-46
2023/12/23 20:49:04;;;;;;;6.28;1.30;;;23.80;45.60;;;;;;10479377;28;20258;-48
2023/12/23 20:54:06;;;;;;;3.38;1.20;;;23.60;46.00;;;;;;10478273;28;20128;-49
2023/12/23 20:59:08;;;;;;;6.50;1.20;;;23.60;45.80;;;;;;10476901;28;20140;-48
2023/12/23 21:04:11;;;;;;;4.57;1.30;;;23.90;45.20;;;;;;10474513;28;20720;-46
2023/12/23 21:09:12;;;;;;;6.72;1.40;;;23.90;45.00;;;;;;10468861;28;20195;-45
2023/12/23 21:14:14;;;;;;;3.38;1.20;;;23.70;45.40;;;;;;10471632;28;20144;-45
2023/12/23 21:19:17;;;;;;;5.18;1.30;;;23.90;44.90;;;;;;10472989;28;20143;-47
2023/12/23 21:24:18;;;;;;;1.33;1.00;;;23.80;44.80;;;;;;10477582;28;20154;-47
2023/12/23 21:29:20;;;;;;;4.68;1.25;;;23.30;43.90;;;;;;10472672;28;20048;-47
2023/12/23 21:34:23;;;;;;;4.90;1.20;;;23.20;44.20;;;;;;10470531;28;20131;-46
2023/12/23 21:39:25;;;;;;;3.38;1.05;;;23.30;44.50;;;;;;10470974;28;20140;-48
2023/12/23 21:44:26;;;;;;;2.28;1.10;;;23.40;44.60;;;;;;10476910;28;20052;-45
2023/12/23 21:49:29;;;;;;;2.13;1.02;;;23.60;44.20;;;;;;10476466;28;20077;-48
2023/12/23 21:54:31;;;;;;;2.78;0.98;;;23.40;44.60;;;;;;10471921;28;20095;-47
2023/12/23 21:59:32;;;;;;;1.35;0.77;;;23.20;45.20;;;;;;10470654;28;20135;-48
2023/12/23 22:04:35;;;;;;;1.50;1.08;;;23.00;45.60;;;;;;10479591;28;20048;-45
2023/12/23 22:09:37;;;;;;;1.73;0.80;;;22.90;46.00;;;;;;10476511;28;20132;-48
2023/12/23 22:14:39;;;;;;;1.50;0.82;;;22.70;46.30;;;;;;10477122;28;20075;-47
2023/12/23 22:19:42;;;;;;;1.70;1.00;;;22.70;46.50;;;;;;10481093;28;20139;-46
2023/12/23 22:24:43;;;;;;;3.17;1.05;;;22.60;46.70;;;;;;10466662;28;20086;-48
2023/12/23 22:29:45;;;;;;;3.85;1.00;;;22.70;46.70;;;;;;10474489;28;20458;-46
2023/12/23 22:34:48;;;;;;;3.47;1.42;;;22.50;46.80;;;;;;10474086;28;20068;-45
2023/12/23 22:39:50;;;;;;;3.70;0.90;;;22.40;47.40;;;;;;10467103;28;20051;-45
2023/12/23 22:44:52;;;;;;;3.63;1.02;;;22.30;47.40;;;;;;10468590;28;20692;-45
2023/12/23 22:49:54;;;;;;;1.00;0.80;;;22.30;47.00;;;;;;10473427;28;20141;-45
2023/12/23 22:54:56;;;;;;;2.25;0.90;;;22.20;47.00;;;;;;10475944;28;20136;-45
2023/12/23 22:59:58;;;;;;;2.33;1.10;;;22.30;46.70;;;;;;10472654;28;20134;-46
2023/12/23 23:05:01;;;;;;;1.10;0.70;;;22.20;46.70;;;;;;10468009;28;20577;-47
2023/12/23 23:10:03;;;;;;;1.35;0.85;;;22.20;46.60;;;;;;10468018;28;20573;-46
2023/12/23 23:15:06;;;;;;;1.95;1.00;;;22.10;46.60;;;;;;10469139;28;20041;-45
2023/12/23 23:20:10;;;;;;;1.30;0.80;;;22.00;46.70;;;;;;10471889;28;20139;-45
2023/12/23 23:25:15;;;;;;;1.17;0.80;;;22.10;46.40;;;;;;10473091;28;20133;-45
2023/12/23 23:30:17;;;;;;;1.10;1.00;;;22.00;46.30;;;;;;10469392;28;20049;-45
2023/12/23 23:35:20;;;;;;;1.27;1.00;;;22.00;46.30;;;;;;10470918;28;20127;-47
2023/12/23 23:40:22;;;;;;;1.48;0.80;;;21.90;46.40;;;;;;10464913;28;20481;-46
2023/12/23 23:45:23;;;;;;;1.52;0.95;;;21.90;46.30;;;;;;10478327;28;21365;-46
2023/12/23 23:50:26;;;;;;;1.45;0.90;;;21.90;46.10;;;;;;10464690;28;20566;-45
2023/12/23 23:55:28;;;;;;;1.35;0.80;;;21.80;46.20;;;;;;10468940;28;20144;-45
